Time;durP1;ratioP1;P1;durP2;ratioP2;P2;SDS_P1;SDS_P2;PMS_P1;PMS_P2;Temp;Humidity;BMP_temperature;BMP_pressure;BME280_temperature;BME280_humidity;BME280_pressure;Samples;Min_cycle;Max_cycle;Signal;HPM_P1;HPM_P2
2022/03/21 00:02:05;;;;;;;19.67;8.30;;;3.00;66.50;;;;;;4984847;28;20022;-87
2022/03/21 00:04:32;;;;;;;23.60;8.93;;;3.00;66.00;;;;;;5001356;28;20031;-87
2022/03/21 00:06:57;;;;;;;17.10;8.32;;;3.00;65.80;;;;;;5001150;28;20478;-88
2022/03/21 00:09:23;;;;;;;18.10;8.70;;;3.00;65.80;;;;;;5001988;28;20061;-87
2022/03/21 00:11:53;;;;;;;16.45;8.38;;;3.00;65.40;;;;;;5001709;28;20018;-87
2022/03/21 00:14:19;;;;;;;19.90;8.63;;;3.00;65.20;;;;;;5002822;28;20091;-87
2022/03/21 00:16:46;;;;;;;18.80;7.90;;;3.00;65.20;;;;;;5002864;28;20530;-88
2022/03/21 00:19:12;;;;;;;19.55;7.93;;;3.00;65.00;;;;;;5005487;28;20030;-88
2022/03/21 00:21:37;;;;;;;17.88;8.18;;;3.00;64.90;;;;;;5004229;28;20060;-85
2022/03/21 00:24:04;;;;;;;20.48;8.73;;;3.00;64.80;;;;;;5005127;28;20022;-85
2022/03/21 00:26:30;;;;;;;16.95;7.75;;;3.00;64.80;;;;;;5012900;28;20035;-86
2022/03/21 00:28:56;;;;;;;16.00;7.70;;;3.00;64.50;;;;;;5012238;28;20038;-85
2022/03/21 00:31:22;;;;;;;17.23;7.75;;;3.00;64.60;;;;;;5004985;28;20050;-87
2022/03/21 00:33:48;;;;;;;18.63;8.07;;;3.00;64.40;;;;;;5009445;28;20018;-87
2022/03/21 00:36:15;;;;;;;17.27;7.95;;;3.00;64.70;;;;;;5012949;28;20038;-86
2022/03/21 00:38:43;;;;;;;15.48;7.20;;;3.00;64.60;;;;;;5014697;28;20208;-85
2022/03/21 00:41:09;;;;;;;22.15;7.97;;;3.00;65.40;;;;;;5018334;28;20036;-86
2022/03/21 00:43:35;;;;;;;17.80;7.80;;;2.90;64.50;;;;;;5017040;28;20069;-85
2022/03/21 00:46:01;;;;;;;19.23;7.97;;;3.00;64.50;;;;;;5012934;28;20022;-86
2022/03/21 00:48:29;;;;;;;19.17;8.35;;;3.00;64.30;;;;;;5011963;28;20086;-87
2022/03/21 00:50:56;;;;;;;18.83;7.32;;;3.00;64.00;;;;;;5011285;28;20026;-86
2022/03/21 00:53:23;;;;;;;18.58;8.00;;;3.00;64.50;;;;;;5014645;28;20033;-84
2022/03/21 00:55:49;;;;;;;17.90;8.05;;;3.00;63.70;;;;;;5018094;28;20042;-84
2022/03/21 00:58:16;;;;;;;13.63;6.97;;;2.90;63.80;;;;;;5016011;28;20038;-87
2022/03/21 01:00:42;;;;;;;16.83;7.63;;;2.90;63.70;;;;;;5016840;28;20033;-87
2022/03/21 01:03:08;;;;;;;16.63;7.28;;;2.90;64.00;;;;;;5017998;28;20081;-86
2022/03/21 01:05:35;;;;;;;15.98;8.00;;;2.90;64.00;;;;;;5018370;28;20011;-85
2022/03/21 01:08:02;;;;;;;13.88;6.70;;;2.90;64.10;;;;;;5018669;28;20014;-84
2022/03/21 01:10:29;;;;;;;17.60;7.32;;;2.80;64.10;;;;;;5018437;28;20007;-88
2022/03/21 01:12:56;;;;;;;15.40;7.20;;;2.80;64.20;;;;;;5017526;28;20083;-87
2022/03/21 01:15:24;;;;;;;13.73;7.13;;;2.80;64.20;;;;;;5017895;28;20015;-85
2022/03/21 01:17:51;;;;;;;15.65;6.72;;;2.80;64.40;;;;;;5014709;28;20030;-87
2022/03/21 01:20:19;;;;;;;15.27;6.50;;;2.70;64.30;;;;;;5003173;28;20026;-87
2022/03/21 01:22:45;;;;;;;11.60;6.38;;;2.70;64.30;;;;;;5005540;28;20102;-87
2022/03/21 01:25:12;;;;;;;19.33;7.20;;;2.80;64.40;;;;;;5018917;28;20029;-87
2022/03/21 01:27:39;;;;;;;15.63;6.68;;;2.80;64.10;;;;;;5021553;28;20050;-86
2022/03/21 01:30:08;;;;;;;18.95;7.07;;;2.80;64.20;;;;;;5021541;28;20049;-82
2022/03/21 01:32:35;;;;;;;13.95;6.93;;;2.80;64.30;;;;;;5017563;28;20066;-87
2022/03/21 01:35:02;;;;;;;14.75;7.35;;;2.80;64.40;;;;;;5012639;28;20041;-84
2022/03/21 01:37:28;;;;;;;14.70;6.85;;;2.80;64.40;;;;;;5021150;28;20025;-84
2022/03/21 01:39:54;;;;;;;17.10;7.13;;;2.80;64.30;;;;;;5021228;28;20022;-83
2022/03/21 01:42:20;;;;;;;13.38;6.82;;;2.80;64.30;;;;;;5021503;28;20031;-85
2022/03/21 01:44:49;;;;;;;16.80;7.25;;;2.80;64.20;;;;;;5021768;28;20034;-85
2022/03/21 01:47:15;;;;;;;13.30;6.97;;;2.70;64.10;;;;;;5021193;28;20017;-84
2022/03/21 01:49:41;;;;;;;14.02;6.47;;;2.80;64.50;;;;;;5020794;28;20014;-85
2022/03/21 01:52:06;;;;;;;15.82;7.05;;;2.80;64.60;;;;;;5017477;28;20057;-85
2022/03/21 01:57:17;;;;;;;13.98;6.85;;;2.70;64.80;;;;;;5021254;28;20041;-85
2022/03/21 01:59:44;;;;;;;21.85;6.63;;;2.60;65.20;;;;;;5021119;28;20018;-85
2022/03/21 02:02:09;;;;;;;15.82;6.13;;;2.60;65.20;;;;;;5012233;28;20050;-86
2022/03/21 02:04:35;;;;;;;15.98;6.93;;;2.60;65.40;;;;;;5010562;28;20065;-86
2022/03/21 02:07:01;;;;;;;15.77;6.18;;;2.60;65.50;;;;;;5010185;28;20062;-86
2022/03/21 02:09:29;;;;;;;16.15;5.85;;;2.50;65.70;;;;;;5020983;28;20023;-85
2022/03/21 02:11:56;;;;;;;13.02;6.40;;;2.50;65.70;;;;;;5018018;28;20045;-87
2022/03/21 02:14:22;;;;;;;14.73;6.55;;;2.50;65.60;;;;;;5013229;28;20046;-87
2022/03/21 02:16:47;;;;;;;16.35;7.10;;;2.50;65.50;;;;;;5011921;28;20342;-85
2022/03/21 02:19:34;;;;;;;11.93;5.95;;;2.60;65.70;;;;;;5018203;28;20081;-83
2022/03/21 02:22:29;;;;;;;11.98;6.18;;;2.60;65.50;;;;;;5019939;28;20038;-86
2022/03/21 02:25:34;;;;;;;17.10;7.50;;;2.50;65.40;;;;;;5011815;28;20034;-87
2022/03/21 02:28:07;;;;;;;15.93;6.30;;;2.60;65.40;;;;;;5007455;28;20064;-87
2022/03/21 02:30:37;;;;;;;14.70;6.78;;;2.60;65.30;;;;;;5007288;28;20037;-85
2022/03/21 02:33:03;;;;;;;16.17;6.40;;;2.60;65.50;;;;;;5020573;28;20029;-83
2022/03/21 02:35:32;;;;;;;12.20;6.20;;;2.60;65.70;;;;;;5017118;28;20109;-87
2022/03/21 02:37:59;;;;;;;15.23;6.18;;;2.60;65.60;;;;;;5010577;28;20490;-85
2022/03/21 02:40:25;;;;;;;14.27;6.82;;;2.50;65.50;;;;;;5008504;28;20112;-86
2022/03/21 02:42:52;;;;;;;11.43;6.50;;;2.50;65.80;;;;;;5012711;28;20038;-86
2022/03/21 02:45:18;;;;;;;14.70;6.43;;;2.60;65.70;;;;;;5015181;28;20042;-85
2022/03/21 02:47:43;;;;;;;14.25;6.15;;;2.60;65.80;;;;;;5013353;28;20034;-86
2022/03/21 02:50:15;;;;;;;14.65;6.60;;;2.50;66.00;;;;;;5017611;28;20013;-85
2022/03/21 02:52:42;;;;;;;11.02;6.00;;;2.50;66.00;;;;;;5019810;28;20478;-85
2022/03/21 02:55:08;;;;;;;13.30;5.72;;;2.50;66.10;;;;;;5019504;28;20006;-87
2022/03/21 02:57:34;;;;;;;13.35;6.35;;;2.40;66.20;;;;;;5020258;28;20022;-85
2022/03/21 02:59:59;;;;;;;15.55;6.00;;;2.40;66.20;;;;;;5017143;28;20057;-87
2022/03/21 03:02:26;;;;;;;10.85;6.10;;;2.40;66.20;;;;;;5009806;28;20065;-87
2022/03/21 03:04:52;;;;;;;14.75;6.70;;;2.40;66.10;;;;;;5017489;28;20042;-86
2022/03/21 03:07:18;;;;;;;13.50;6.30;;;2.40;66.40;;;;;;5019693;28;20042;-85
2022/03/21 03:09:44;;;;;;;13.45;6.50;;;2.40;66.90;;;;;;5019155;28;20038;-86
2022/03/21 03:12:10;;;;;;;15.32;7.03;;;2.40;68.20;;;;;;5015103;28;20027;-86
2022/03/21 03:14:36;;;;;;;15.73;7.40;;;2.30;69.70;;;;;;5018238;28;20049;-87
2022/03/21 03:17:02;;;;;;;15.57;6.95;;;2.30;70.20;;;;;;5018349;28;20030;-85
2022/03/21 03:19:28;;;;;;;16.80;7.35;;;2.20;71.00;;;;;;5019710;28;20066;-84
2022/03/21 03:21:55;;;;;;;20.33;7.20;;;2.10;71.30;;;;;;5019646;28;20043;-83
2022/03/21 03:24:25;;;;;;;17.38;7.53;;;2.00;71.80;;;;;;5020050;28;20069;-85
2022/03/21 03:26:50;;;;;;;15.48;7.45;;;2.00;72.40;;;;;;5019916;28;20018;-84
2022/03/21 03:29:16;;;;;;;20.35;7.88;;;1.90;72.60;;;;;;5003045;28;20037;-84
2022/03/21 03:31:43;;;;;;;15.27;7.15;;;1.80;72.90;;;;;;5018783;28;20034;-86
2022/03/21 03:34:09;;;;;;;18.42;7.05;;;1.70;73.10;;;;;;4998908;28;20030;-86
2022/03/21 03:36:35;;;;;;;16.88;6.97;;;1.70;73.10;;;;;;5006669;28;20030;-86
2022/03/21 03:39:01;;;;;;;17.45;7.50;;;1.60;73.30;;;;;;5004196;28;20030;-86
2022/03/21 03:41:29;;;;;;;21.52;7.90;;;1.60;73.20;;;;;;5004795;28;20050;-87
2022/03/21 03:43:54;;;;;;;20.83;7.72;;;1.50;73.20;;;;;;5007881;28;20057;-86
2022/03/21 03:46:21;;;;;;;13.27;6.97;;;1.50;73.30;;;;;;5006642;28;20030;-86
2022/03/21 03:48:47;;;;;;;15.90;7.68;;;1.40;73.50;;;;;;5005090;28;20022;-88
2022/03/21 03:51:13;;;;;;;15.40;6.93;;;1.30;73.90;;;;;;5017527;28;20086;-84
2022/03/21 03:53:40;;;;;;;18.23;7.85;;;1.30;74.50;;;;;;5013594;28;20034;-86
2022/03/21 03:56:09;;;;;;;16.42;7.80;;;1.20;74.90;;;;;;5007666;28;20034;-86
2022/03/21 03:58:38;;;;;;;18.92;7.85;;;1.20;75.50;;;;;;5005815;28;20022;-88
2022/03/21 04:01:06;;;;;;;18.92;8.13;;;1.10;75.90;;;;;;5011233;28;20057;-85
2022/03/21 04:03:45;;;;;;;17.65;8.38;;;1.10;76.40;;;;;;5012737;28;20085;-88
2022/03/21 04:06:23;;;;;;;16.90;8.35;;;1.10;77.10;;;;;;5002366;28;20042;-85
2022/03/21 04:08:50;;;;;;;20.02;8.82;;;1.00;77.40;;;;;;5001854;28;20026;-86
2022/03/21 04:11:16;;;;;;;20.10;8.45;;;1.00;77.40;;;;;;5002414;28;20049;-87
2022/03/21 04:13:43;;;;;;;16.65;7.60;;;1.00;77.60;;;;;;5002476;28;20029;-86
2022/03/21 04:16:09;;;;;;;18.45;8.05;;;1.00;77.80;;;;;;5000194;28;20510;-87
2022/03/21 04:18:35;;;;;;;24.58;8.40;;;1.00;78.20;;;;;;5003968;28;20038;-87
2022/03/21 04:21:02;;;;;;;18.70;8.38;;;0.90;78.30;;;;;;5012816;28;20054;-85
2022/03/21 04:23:27;;;;;;;20.05;8.07;;;0.90;78.70;;;;;;5017269;28;20026;-86
2022/03/21 04:25:53;;;;;;;21.13;8.60;;;0.90;78.90;;;;;;5011972;28;20038;-85
2022/03/21 04:28:19;;;;;;;16.90;8.07;;;0.80;79.30;;;;;;5007089;28;20050;-87
2022/03/21 04:30:45;;;;;;;27.00;8.18;;;0.90;79.70;;;;;;5006688;28;20553;-86
2022/03/21 04:33:14;;;;;;;24.10;8.85;;;0.80;80.00;;;;;;5002784;28;20034;-85
2022/03/21 04:35:41;;;;;;;21.65;8.35;;;0.80;80.30;;;;;;5004855;28;20042;-86
2022/03/21 04:38:15;;;;;;;20.25;8.98;;;0.80;81.00;;;;;;5007820;28;20042;-86
2022/03/21 04:40:42;;;;;;;19.83;8.85;;;0.80;81.60;;;;;;5010725;28;20085;-85
2022/03/21 04:43:09;;;;;;;21.95;9.20;;;0.90;82.20;;;;;;5017920;28;20021;-85
2022/03/21 04:45:35;;;;;;;18.08;9.23;;;0.90;82.70;;;;;;5005164;28;20101;-87
2022/03/21 04:48:02;;;;;;;21.90;9.75;;;0.90;82.80;;;;;;5006346;28;20446;-86
2022/03/21 04:50:28;;;;;;;23.05;9.15;;;0.90;82.70;;;;;;5008187;28;20022;-85
2022/03/21 04:52:53;;;;;;;19.40;8.98;;;0.90;82.70;;;;;;5015519;28;20040;-86
2022/03/21 04:55:19;;;;;;;19.45;9.70;;;1.00;83.20;;;;;;5006389;28;20030;-87
2022/03/21 04:57:45;;;;;;;25.50;9.82;;;1.00;82.30;;;;;;5006021;28;20042;-87
2022/03/21 05:00:13;;;;;;;21.48;9.77;;;1.00;81.90;;;;;;5007794;28;20498;-86
2022/03/21 05:02:39;;;;;;;23.20;10.40;;;1.00;81.60;;;;;;5008530;28;20518;-87
2022/03/21 05:05:05;;;;;;;24.27;10.20;;;1.00;81.30;;;;;;5009074;28;20031;-86
2022/03/21 05:07:31;;;;;;;22.60;10.20;;;1.00;81.40;;;;;;4992393;28;20042;-87
2022/03/21 05:09:57;;;;;;;22.23;9.77;;;1.10;81.40;;;;;;5006870;28;20030;-88
2022/03/21 05:12:23;;;;;;;25.08;11.55;;;1.10;81.00;;;;;;5008329;28;20038;-87
2022/03/21 05:14:49;;;;;;;28.08;10.80;;;1.10;81.10;;;;;;5007302;28;20030;-86
2022/03/21 05:17:17;;;;;;;25.67;10.75;;;1.10;80.90;;;;;;5010570;28;20034;-87
2022/03/21 05:19:44;;;;;;;26.20;10.55;;;1.20;80.80;;;;;;5015155;28;20047;-85
2022/03/21 05:22:09;;;;;;;24.13;10.80;;;1.20;80.80;;;;;;5000887;28;20026;-84
2022/03/21 05:35:57;;;;;;;24.42;11.18;;;1.50;79.30;;;;;;5013414;28;20046;-85
2022/03/21 05:38:25;;;;;;;28.30;11.65;;;1.60;78.70;;;;;;5056429;23;20076;-84
2022/03/21 05:40:52;;;;;;;26.13;11.52;;;1.60;78.20;;;;;;5032617;28;20030;-85
2022/03/21 05:43:19;;;;;;;23.05;10.98;;;1.60;77.80;;;;;;5052563;28;20115;-82
2022/03/21 05:45:46;;;;;;;30.65;12.32;;;1.70;77.40;;;;;;5053906;28;20022;-84
2022/03/21 05:50:56;;;;;;;36.37;11.57;;;1.80;76.90;;;;;;5054115;28;20041;-82
2022/03/21 05:53:22;;;;;;;28.88;11.30;;;1.90;76.70;;;;;;5027783;28;20030;-84
2022/03/21 05:55:48;;;;;;;23.55;10.73;;;1.90;76.70;;;;;;5026008;28;20021;-82
2022/03/21 05:58:13;;;;;;;27.65;11.98;;;2.00;76.00;;;;;;5034778;28;20018;-82
2022/03/21 06:00:39;;;;;;;25.58;11.27;;;2.00;75.70;;;;;;5052985;28;20025;-84
2022/03/21 06:03:08;;;;;;;32.35;11.70;;;2.10;75.40;;;;;;5054612;28;20093;-83
2022/03/21 06:05:35;;;;;;;31.63;11.98;;;2.20;75.30;;;;;;5056701;28;20074;-83
2022/03/21 06:08:01;;;;;;;26.40;12.35;;;2.30;75.10;;;;;;5038867;28;20093;-84
2022/03/21 06:10:26;;;;;;;26.30;11.82;;;2.40;74.80;;;;;;5041050;28;20374;-83
2022/03/21 06:12:55;;;;;;;29.42;11.40;;;2.50;74.60;;;;;;5036004;28;20036;-84
2022/03/21 06:15:21;;;;;;;30.63;11.88;;;2.50;74.30;;;;;;5028118;28;20041;-84
2022/03/21 06:17:46;;;;;;;28.33;12.02;;;2.60;74.50;;;;;;5050501;28;20089;-83
2022/03/21 06:20:16;;;;;;;32.08;12.52;;;2.60;74.40;;;;;;5054602;28;20037;-83
2022/03/21 06:22:43;;;;;;;24.23;10.90;;;2.70;74.00;;;;;;5056812;28;20032;-82
2022/03/21 06:25:10;;;;;;;28.30;12.38;;;2.90;74.40;;;;;;5041793;28;20031;-84
2022/03/21 06:27:39;;;;;;;25.15;11.38;;;2.90;73.50;;;;;;5053671;28;20041;-84
2022/03/21 06:30:08;;;;;;;39.15;12.00;;;3.10;73.30;;;;;;5033771;28;20083;-82
2022/03/21 06:32:34;;;;;;;28.20;11.38;;;3.20;73.80;;;;;;5048776;28;20033;-85
2022/03/21 06:35:01;;;;;;;30.80;11.38;;;3.30;73.00;;;;;;5047443;28;20025;-85
2022/03/21 06:37:27;;;;;;;31.73;11.98;;;3.40;73.80;;;;;;5028533;28;20033;-86
2022/03/21 06:39:54;;;;;;;28.33;11.82;;;3.50;74.00;;;;;;5028991;28;20041;-86
2022/03/21 06:42:21;;;;;;;31.13;11.30;;;3.60;74.50;;;;;;5046883;28;20547;-86
2022/03/21 06:44:49;;;;;;;27.90;12.23;;;3.80;73.90;;;;;;5015427;28;20400;-87
2022/03/21 06:47:15;;;;;;;29.10;11.20;;;3.90;73.50;;;;;;5049481;28;20044;-85
2022/03/21 06:49:41;;;;;;;25.52;10.60;;;3.90;72.40;;;;;;5030700;28;20077;-86
2022/03/21 06:52:08;;;;;;;29.92;10.90;;;4.00;71.80;;;;;;5034132;28;20199;-83
2022/03/21 06:54:35;;;;;;;28.25;10.88;;;4.10;70.90;;;;;;5059893;28;20021;-84
2022/03/21 06:57:01;;;;;;;40.75;11.82;;;4.20;70.40;;;;;;5059583;28;20013;-83
2022/03/21 06:59:29;;;;;;;31.23;12.25;;;4.30;69.90;;;;;;5059866;28;20038;-84
2022/03/21 07:01:56;;;;;;;31.73;11.75;;;4.50;69.60;;;;;;5058204;28;20038;-85
2022/03/21 07:04:23;;;;;;;24.85;11.40;;;4.60;69.20;;;;;;5054475;28;20033;-87
2022/03/21 07:06:54;;;;;;;25.15;11.15;;;4.60;69.20;;;;;;5037931;28;20028;-84
2022/03/21 07:09:21;;;;;;;34.88;10.93;;;4.70;68.80;;;;;;5052963;28;20060;-82
2022/03/21 07:11:46;;;;;;;25.98;10.70;;;4.80;68.80;;;;;;5048651;28;20013;-87
2022/03/21 07:14:12;;;;;;;26.80;10.85;;;4.90;68.20;;;;;;5056247;28;20036;-85
2022/03/21 07:16:38;;;;;;;27.15;10.85;;;5.00;68.10;;;;;;5039101;28;20052;-84
2022/03/21 07:19:06;;;;;;;35.45;12.00;;;5.10;68.20;;;;;;5039661;28;20034;-85
2022/03/21 07:21:32;;;;;;;30.55;10.55;;;5.20;67.80;;;;;;5054617;28;20021;-85
2022/03/21 07:23:57;;;;;;;22.50;11.02;;;5.20;67.60;;;;;;5036646;28;20060;-83
2022/03/21 07:26:23;;;;;;;36.88;11.45;;;5.30;67.60;;;;;;5052287;28;20022;-86
2022/03/21 07:28:49;;;;;;;24.02;11.30;;;5.30;67.30;;;;;;5053294;28;20012;-84
2022/03/21 07:31:15;;;;;;;28.30;11.52;;;5.40;67.30;;;;;;5039432;28;20022;-82
2022/03/21 07:33:41;;;;;;;27.00;12.05;;;5.40;67.50;;;;;;5040421;28;20100;-83
2022/03/21 07:36:08;;;;;;;24.58;10.90;;;5.60;67.10;;;;;;5037066;28;20026;-83
2022/03/21 07:38:35;;;;;;;34.55;11.85;;;5.70;66.90;;;;;;5051096;28;20155;-84
2022/03/21 07:41:02;;;;;;;31.33;11.38;;;5.80;66.90;;;;;;5037911;28;20031;-84
2022/03/21 07:43:28;;;;;;;25.95;11.15;;;5.80;66.80;;;;;;5050632;28;20017;-84
2022/03/21 07:48:39;;;;;;;30.30;10.70;;;6.00;66.30;;;;;;5030369;28;20026;-85
2022/03/21 07:51:05;;;;;;;40.30;10.50;;;6.10;66.20;;;;;;5050537;28;20097;-86
2022/03/21 07:53:31;;;;;;;21.27;10.30;;;6.20;66.60;;;;;;5050347;28;20029;-84
2022/03/21 07:56:00;;;;;;;26.55;11.25;;;6.20;65.80;;;;;;5055797;28;20073;-86
2022/03/21 07:58:29;;;;;;;23.60;11.05;;;6.30;65.30;;;;;;5040748;28;20085;-86
2022/03/21 08:00:56;;;;;;;23.88;10.63;;;6.40;65.70;;;;;;5041104;28;20093;-83
2022/03/21 08:03:22;;;;;;;25.23;11.73;;;6.50;65.00;;;;;;5058117;28;20036;-83
2022/03/21 08:05:48;;;;;;;25.73;11.13;;;6.60;64.30;;;;;;5058061;28;20013;-84
2022/03/21 08:08:15;;;;;;;24.83;11.10;;;6.80;64.80;;;;;;5038058;28;20029;-84
2022/03/21 08:10:42;;;;;;;24.98;10.57;;;6.70;63.40;;;;;;5057087;28;20019;-85
2022/03/21 08:13:08;;;;;;;25.63;11.80;;;6.60;63.90;;;;;;5056718;28;20032;-84
2022/03/21 08:15:36;;;;;;;29.63;10.88;;;6.70;63.90;;;;;;5057068;28;20022;-82
2022/03/21 08:18:03;;;;;;;21.50;9.45;;;6.90;62.70;;;;;;5057029;28;20068;-85
2022/03/21 08:20:34;;;;;;;24.85;9.38;;;7.00;62.20;;;;;;5039669;28;20041;-84
2022/03/21 08:23:06;;;;;;;25.85;9.65;;;7.00;62.20;;;;;;5050170;28;20608;-83
2022/03/21 08:25:33;;;;;;;23.25;9.85;;;7.10;62.10;;;;;;5047726;28;20044;-84
2022/03/21 08:27:59;;;;;;;20.55;9.23;;;7.00;61.10;;;;;;5029529;28;20068;-86
2022/03/21 08:30:24;;;;;;;19.70;8.77;;;7.10;61.70;;;;;;5049806;28;20026;-83
2022/03/21 08:32:50;;;;;;;24.73;9.18;;;7.20;60.30;;;;;;5052546;28;20056;-83
2022/03/21 08:35:18;;;;;;;15.85;8.13;;;7.20;59.60;;;;;;5055284;28;20057;-82
2022/03/21 08:37:45;;;;;;;18.10;8.70;;;7.20;59.90;;;;;;5055272;28;20017;-84
2022/03/21 08:40:12;;;;;;;19.17;8.77;;;7.30;59.90;;;;;;5039368;28;20055;-83
2022/03/21 08:42:38;;;;;;;19.15;8.20;;;7.30;59.10;;;;;;5056862;28;20025;-83
2022/03/21 08:45:05;;;;;;;17.90;8.15;;;7.40;59.20;;;;;;5037179;28;20044;-82
2022/03/21 08:47:31;;;;;;;14.45;8.15;;;7.60;59.50;;;;;;5052565;28;20028;-85
2022/03/21 08:49:57;;;;;;;15.75;8.70;;;7.60;59.10;;;;;;5038192;28;20046;-85
2022/03/21 08:52:23;;;;;;;16.35;8.30;;;7.70;59.30;;;;;;5052772;28;20049;-83
2022/03/21 08:54:49;;;;;;;23.27;8.52;;;7.80;59.10;;;;;;5051265;28;20116;-86
2022/03/21 08:57:15;;;;;;;22.02;8.77;;;7.80;58.20;;;;;;5052154;28;20032;-86
2022/03/21 08:59:41;;;;;;;44.75;11.50;;;7.80;58.20;;;;;;5051730;28;20033;-84
2022/03/21 09:02:08;;;;;;;20.42;8.95;;;7.90;57.80;;;;;;5051710;28;20036;-85
2022/03/21 09:04:39;;;;;;;16.40;7.47;;;7.90;57.60;;;;;;5015718;28;20045;-84
2022/03/21 09:07:08;;;;;;;15.25;7.32;;;8.10;56.80;;;;;;5036857;28;20030;-84
2022/03/21 09:09:34;;;;;;;19.88;7.38;;;8.40;56.60;;;;;;5023053;28;20016;-85
2022/03/21 09:12:00;;;;;;;18.50;8.00;;;8.70;56.10;;;;;;5048217;28;20068;-85
2022/03/21 09:14:26;;;;;;;17.02;8.05;;;9.10;55.00;;;;;;5050401;28;20017;-83
2022/03/21 09:16:53;;;;;;;16.85;7.57;;;9.20;53.60;;;;;;5034983;28;20081;-82
2022/03/21 09:19:19;;;;;;;15.13;8.27;;;9.50;53.70;;;;;;5055738;28;20013;-83
2022/03/21 09:21:46;;;;;;;18.80;8.52;;;9.70;53.50;;;;;;5055815;28;20036;-82
2022/03/21 09:24:12;;;;;;;13.23;8.05;;;10.40;53.50;;;;;;5056251;28;20041;-83
2022/03/21 09:26:38;;;;;;;13.68;7.93;;;11.40;52.80;;;;;;5039087;28;20072;-82
2022/03/21 09:29:04;;;;;;;18.40;9.32;;;12.20;51.60;;;;;;5037587;28;20312;-83
2022/03/21 09:31:33;;;;;;;17.00;9.00;;;12.90;51.60;;;;;;5053087;28;20018;-83
2022/03/21 09:33:59;;;;;;;18.70;9.50;;;13.80;50.70;;;;;;5052315;28;20109;-84
2022/03/21 09:36:26;;;;;;;27.50;9.50;;;14.50;49.20;;;;;;5054519;28;20041;-85
2022/03/21 09:38:52;;;;;;;18.77;9.02;;;15.00;48.90;;;;;;5021043;28;20034;-83
2022/03/21 09:41:23;;;;;;;16.77;9.50;;;15.30;48.50;;;;;;5052533;28;20014;-82
2022/03/21 09:44:00;;;;;;;16.48;8.93;;;15.40;48.20;;;;;;5057121;28;20080;-83
2022/03/21 09:46:26;;;;;;;19.40;8.20;;;16.20;47.20;;;;;;5042389;28;20033;-84
2022/03/21 09:48:56;;;;;;;25.52;9.85;;;16.40;46.10;;;;;;5059922;28;20025;-84
2022/03/21 09:51:24;;;;;;;12.43;7.78;;;17.10;45.00;;;;;;5058679;28;20018;-83
2022/03/21 09:53:51;;;;;;;14.52;8.98;;;16.50;44.20;;;;;;5059912;28;20058;-84
2022/03/21 09:56:17;;;;;;;13.57;8.43;;;16.00;44.40;;;;;;5059984;28;20017;-81
2022/03/21 09:58:44;;;;;;;14.00;7.47;;;15.70;43.90;;;;;;5059571;28;20043;-84
2022/03/21 10:01:11;;;;;;;13.07;7.93;;;15.40;44.00;;;;;;5025821;28;20059;-81
2022/03/21 10:03:38;;;;;;;12.00;7.22;;;16.10;43.40;;;;;;5042637;28;20013;-83
2022/03/21 10:06:40;;;;;;;17.38;9.00;;;16.60;42.60;;;;;;5059501;28;20049;-84
2022/03/21 10:09:16;;;;;;;16.23;7.70;;;17.10;42.60;;;;;;4977140;28;20035;-85
2022/03/21 10:11:59;;;;;;;12.85;7.32;;;17.50;41.70;;;;;;5027331;28;20041;-83
2022/03/21 10:14:33;;;;;;;14.90;8.20;;;17.70;41.50;;;;;;5042263;28;20018;-82
2022/03/21 10:17:03;;;;;;;14.13;7.60;;;18.80;40.90;;;;;;5058909;28;20052;-82
2022/03/21 10:19:42;;;;;;;14.30;6.97;;;18.80;39.80;;;;;;5040871;28;20035;-82
2022/03/21 10:22:13;;;;;;;18.35;7.75;;;18.00;40.70;;;;;;5039261;28;20034;-83
2022/03/21 10:24:44;;;;;;;15.05;7.05;;;18.60;41.00;;;;;;5040642;28;20068;-85
2022/03/21 10:27:34;;;;;;;11.57;7.35;;;19.50;40.40;;;;;;5055111;28;20109;-84
2022/03/21 10:30:06;;;;;;;14.43;7.97;;;20.90;38.90;;;;;;5037655;28;20030;-83
2022/03/21 10:32:35;;;;;;;18.92;7.43;;;21.30;38.90;;;;;;5033667;28;20033;-84
2022/03/21 10:35:06;;;;;;;17.27;7.03;;;21.60;38.00;;;;;;5033807;28;20032;-85
2022/03/21 10:37:44;;;;;;;14.88;8.10;;;21.40;38.10;;;;;;5034671;28;20041;-85
2022/03/21 10:40:30;;;;;;;13.27;7.50;;;21.50;37.50;;;;;;5019397;28;20017;-84
2022/03/21 10:43:09;;;;;;;12.70;6.85;;;21.30;37.50;;;;;;5037710;28;20024;-85
2022/03/21 10:45:35;;;;;;;19.05;7.50;;;20.60;37.80;;;;;;5049273;28;20417;-84
2022/03/21 10:48:04;;;;;;;13.90;7.68;;;20.50;37.50;;;;;;5052242;28;20021;-85
2022/03/21 10:50:41;;;;;;;18.38;7.90;;;19.70;37.30;;;;;;5053520;28;20034;-83
2022/03/21 10:53:11;;;;;;;13.73;8.32;;;19.70;37.90;;;;;;5056273;28;20036;-84
2022/03/21 10:55:37;;;;;;;10.73;6.85;;;19.90;38.10;;;;;;5036847;28;20025;-84
2022/03/21 10:58:04;;;;;;;10.52;6.63;;;20.90;37.30;;;;;;5053339;28;20051;-85
2022/03/21 11:00:30;;;;;;;12.02;7.10;;;21.60;36.70;;;;;;5052709;28;20026;-84
2022/03/21 11:03:12;;;;;;;12.63;7.05;;;21.50;36.40;;;;;;5054886;28;20052;-84
2022/03/21 11:05:41;;;;;;;13.15;6.88;;;21.50;36.00;;;;;;5038204;28;20101;-84
2022/03/21 11:08:10;;;;;;;11.98;6.30;;;21.70;35.70;;;;;;5033523;28;20025;-87
2022/03/21 11:10:37;;;;;;;11.15;6.90;;;21.60;35.80;;;;;;5029765;28;20053;-86
2022/03/21 11:13:05;;;;;;;13.75;6.18;;;22.10;35.30;;;;;;5029612;28;20036;-86
2022/03/21 11:15:35;;;;;;;11.02;6.43;;;22.90;34.90;;;;;;5012860;28;20033;-86
2022/03/21 11:18:02;;;;;;;11.80;7.25;;;23.20;35.00;;;;;;5030205;28;20101;-84
2022/03/21 11:20:31;;;;;;;10.52;6.82;;;22.60;35.30;;;;;;5048092;28;20093;-83
2022/03/21 11:23:01;;;;;;;10.70;6.90;;;22.80;35.20;;;;;;5031369;28;20113;-86
2022/03/21 11:25:32;;;;;;;9.45;6.50;;;23.00;34.30;;;;;;5030397;28;20084;-84
2022/03/21 11:28:04;;;;;;;7.85;5.63;;;22.70;34.20;;;;;;5031972;28;20025;-86
2022/03/21 11:30:43;;;;;;;8.70;5.72;;;22.60;34.30;;;;;;5031604;28;20030;-87
2022/03/21 11:33:34;;;;;;;11.45;5.68;;;23.10;34.20;;;;;;5030706;28;20030;-85
2022/03/21 11:36:03;;;;;;;13.02;7.25;;;22.80;34.30;;;;;;5046889;28;20025;-87
2022/03/21 11:38:33;;;;;;;7.45;5.68;;;22.80;34.50;;;;;;5104797;23;20095;-88
2022/03/21 11:41:14;;;;;;;10.73;5.65;;;22.80;34.20;;;;;;5073502;28;20064;-86
2022/03/21 11:43:42;;;;;;;12.43;5.55;;;22.90;33.70;;;;;;5055955;28;20469;-88
2022/03/21 11:46:27;;;;;;;10.93;5.40;;;22.40;33.50;;;;;;5069134;28;20034;-87
2022/03/21 11:49:28;;;;;;;9.03;6.47;;;22.20;33.50;;;;;;5054041;28;20021;-86
2022/03/21 11:51:55;;;;;;;10.68;6.78;;;22.30;33.80;;;;;;5066654;28;20271;-89
2022/03/21 11:54:28;;;;;;;11.07;6.25;;;22.70;34.50;;;;;;5065920;28;20020;-88
2022/03/21 11:57:22;;;;;;;11.43;6.20;;;22.40;33.70;;;;;;5061519;28;20021;-88
2022/03/21 11:59:49;;;;;;;10.52;6.63;;;22.50;33.80;;;;;;5062245;28;20528;-88
2022/03/21 12:02:15;;;;;;;12.20;6.18;;;22.70;33.80;;;;;;5064371;28;20099;-88
2022/03/21 12:04:42;;;;;;;11.63;6.00;;;22.90;33.80;;;;;;5067351;28;20030;-86
2022/03/21 12:07:14;;;;;;;9.70;6.45;;;23.70;33.50;;;;;;5057079;28;20392;-89
2022/03/21 12:09:45;;;;;;;9.55;6.20;;;24.30;33.00;;;;;;5066052;28;20028;-88
2022/03/21 12:12:12;;;;;;;12.07;6.40;;;24.80;32.80;;;;;;5059744;28;20044;-88
2022/03/21 12:14:45;;;;;;;11.57;6.47;;;24.00;32.50;;;;;;5060506;28;20085;-87
2022/03/21 12:17:14;;;;;;;11.50;6.10;;;23.80;32.90;;;;;;5059754;28;20101;-86
2022/03/21 12:19:48;;;;;;;11.25;6.65;;;23.00;32.20;;;;;;5060535;28;20017;-86
2022/03/21 12:22:43;;;;;;;8.38;5.80;;;22.30;33.30;;;;;;5077946;28;20059;-85
2022/03/21 12:25:41;;;;;;;12.35;6.15;;;22.70;33.10;;;;;;5078270;28;20021;-86
2022/03/21 12:31:30;;;;;;;13.73;5.90;;;24.50;32.50;;;;;;5061986;28;20037;-86
2022/03/21 12:34:35;;;;;;;10.57;6.25;;;24.90;32.40;;;;;;5040713;28;20040;-85
2022/03/21 12:37:23;;;;;;;12.88;5.75;;;24.70;31.90;;;;;;5047777;28;20035;-85
2022/03/21 12:39:49;;;;;;;11.55;6.60;;;23.80;32.10;;;;;;5057214;28;20037;-85
2022/03/21 12:42:20;;;;;;;13.77;7.05;;;23.70;32.40;;;;;;5035512;28;20028;-86
2022/03/21 12:44:46;;;;;;;11.48;6.03;;;24.10;32.20;;;;;;5058329;28;20025;-86
2022/03/21 12:47:12;;;;;;;9.73;6.53;;;24.30;31.90;;;;;;5041202;28;20017;-85
2022/03/21 12:49:51;;;;;;;14.23;7.03;;;24.60;32.00;;;;;;5058223;28;20009;-86
2022/03/21 12:52:31;;;;;;;14.10;6.15;;;25.00;31.80;;;;;;5061096;28;20063;-86
2022/03/21 12:54:58;;;;;;;10.55;6.57;;;24.60;31.50;;;;;;5051275;28;20033;-87
2022/03/21 12:57:25;;;;;;;11.73;6.70;;;24.60;31.50;;;;;;5067375;28;20012;-87
2022/03/21 12:59:51;;;;;;;10.73;6.10;;;24.30;31.20;;;;;;5075545;28;20017;-86
2022/03/21 13:02:27;;;;;;;18.85;7.90;;;24.00;31.80;;;;;;5073618;28;20116;-87
2022/03/21 13:10:34;;;;;;;13.77;5.97;;;23.80;30.70;;;;;;5072107;28;20086;-87
2022/03/21 13:13:01;;;;;;;;;;;24.20;31.10;;;;;;5056591;28;20056;-87
2022/03/21 13:15:28;;;;;;;12.80;6.15;;;24.80;30.70;;;;;;5072544;28;19923;-86
2022/03/21 13:18:01;;;;;;;11.95;6.75;;;24.60;31.40;;;;;;5064963;28;20017;-86
2022/03/21 13:20:31;;;;;;;13.15;6.18;;;24.60;31.80;;;;;;5066761;28;20017;-88